Time;durP1;ratioP1;P1;durP2;ratioP2;P2;SDS_P1;SDS_P2;PMS_P1;PMS_P2;Temp;Humidity;BMP_temperature;BMP_pressure;BME280_temperature;BME280_humidity;BME280_pressure;Samples;Min_cycle;Max_cycle;Signal;HPM_P1;HPM_P2
2022/03/06 00:07:45;;;;;;;126.40;40.07;;;;;;;-1.37;66.20;101280.59;713414;1174;115233;-78
2022/03/06 00:22:48;;;;;;;87.63;30.03;;;;;;;-1.47;66.47;101285.99;713483;1174;115349;-78
2022/03/06 00:37:50;;;;;;;71.15;25.08;;;;;;;-1.38;65.80;101278.06;713698;1174;115205;-78
2022/03/06 00:52:53;;;;;;;61.48;20.83;;;;;;;-1.67;67.16;101266.68;713831;1174;115045;-78
2022/03/06 01:07:55;;;;;;;53.40;19.65;;;;;;;-1.65;67.41;101272.66;713784;1174;115978;-79
2022/03/06 01:22:57;;;;;;;76.47;27.77;;;;;;;-1.51;67.51;101251.75;713549;1174;115960;-79
2022/03/06 01:37:59;;;;;;;58.77;20.73;;;;;;;-1.49;66.85;101254.28;713431;1177;114465;-78
2022/03/06 01:53:04;;;;;;;46.53;16.85;;;;;;;-1.72;67.06;101247.91;713438;1174;115377;-78
2022/03/06 02:08:07;;;;;;;59.55;20.18;;;;;;;-1.88;67.13;101250.80;713287;1174;114449;-78
2022/03/06 02:23:09;;;;;;;56.65;17.03;;;;;;;-2.07;66.88;101242.63;713373;1174;115470;-78
2022/03/06 02:38:12;;;;;;;54.25;21.40;;;;;;;-2.09;67.28;101222.97;713719;1174;116459;-78
2022/03/06 02:53:14;;;;;;;54.38;21.60;;;;;;;-2.01;67.39;101226.22;713294;1174;114891;-78
2022/03/06 03:08:16;;;;;;;55.40;19.88;;;;;;;-2.02;67.42;101224.52;713847;1177;115855;-78
2022/03/06 03:23:19;;;;;;;395.20;128.05;;;;;;;-1.98;68.13;101210.75;713382;1175;115330;-78
2022/03/06 03:38:21;;;;;;;343.63;96.60;;;;;;;-2.10;67.66;101206.70;713323;1174;115443;-79
2022/03/06 03:53:24;;;;;;;287.73;77.57;;;;;;;-2.05;68.00;101204.02;713297;1174;115926;-77
2022/03/06 04:08:26;;;;;;;242.20;60.40;;;;;;;-2.10;67.89;101216.13;713785;1177;115256;-77
2022/03/06 04:23:28;;;;;;;308.00;68.85;;;;;;;-2.22;68.07;101207.80;713454;1174;115763;-78
2022/03/06 04:38:30;;;;;;;218.65;51.50;;;;;;;-2.34;68.28;101208.02;713332;1175;115637;-78
2022/03/06 04:53:32;;;;;;;172.38;46.60;;;;;;;-2.45;68.29;101210.81;713533;1174;115518;-77
2022/03/06 05:08:35;;;;;;;112.87;30.77;;;;;;;-2.69;68.62;101200.11;713640;1174;115914;-79
2022/03/06 05:23:38;;;;;;;205.05;49.30;;;;;;;-2.62;68.67;101200.84;713839;1174;115454;-79
2022/03/06 05:38:40;;;;;;;368.63;104.43;;;;;;;-2.66;68.67;101194.07;714046;1177;115582;-81
2022/03/06 05:53:42;;;;;;;255.13;64.77;;;;;;;-2.47;68.91;101188.59;713843;1174;115936;-79
2022/03/06 06:08:44;;;;;;;85.53;29.40;;;;;;;-2.12;69.48;101189.61;713640;1177;115207;-81
2022/03/06 06:23:46;;;;;;;76.18;30.55;;;;;;;-1.62;69.39;101182.50;713804;1175;115731;-82
2022/03/06 06:38:48;;;;;;;166.10;58.55;;;;;;;-1.12;69.56;101186.47;717022;1174;115535;-78
2022/03/06 06:53:50;;;;;;;355.97;115.53;;;;;;;-0.21;69.85;101174.58;714619;1177;116055;-83
2022/03/06 07:08:53;;;;;;;409.98;139.70;;;;;;;0.79;69.29;101168.08;715006;1177;115594;-80
2022/03/06 07:23:56;;;;;;;146.97;59.43;;;;;;;1.35;69.33;101170.48;714321;1176;116016;-82
2022/03/06 07:38:59;;;;;;;41.10;20.20;;;;;;;2.22;69.04;101179.36;713993;1176;114383;-83
2022/03/06 07:54:01;;;;;;;40.10;22.30;;;;;;;3.40;67.53;101180.56;714194;1177;115687;-86
2022/03/06 08:09:04;;;;;;;72.13;32.23;;;;;;;4.52;67.83;101184.12;713991;1174;115509;-76
2022/03/06 08:24:06;;;;;;;47.08;20.85;;;;;;;5.64;66.21;101177.59;714362;1175;115493;-76
2022/03/06 08:39:08;;;;;;;42.60;21.70;;;;;;;6.14;64.64;101170.60;714109;1174;115330;-76
2022/03/06 08:54:11;;;;;;;37.20;19.80;;;;;;;7.00;63.29;101184.89;713847;1175;115621;-76
2022/03/06 09:09:13;;;;;;;32.80;15.90;;;;;;;6.03;60.52;101178.19;714082;1175;115049;-74
2022/03/06 09:24:15;;;;;;;123.67;45.17;;;;;;;6.24;60.52;101167.48;714028;1176;114149;-75
2022/03/06 09:39:17;;;;;;;87.23;38.28;;;;;;;7.31;58.37;101160.42;714066;1176;115777;-74
2022/03/06 09:54:20;;;;;;;49.13;20.83;;;;;;;6.87;56.47;101161.28;713951;1174;115585;-73
2022/03/06 10:09:23;;;;;;;142.85;49.48;;;;;;;6.41;55.34;101141.30;714428;1174;114775;-73
2022/03/06 10:24:26;;;;;;;183.35;68.10;;;;;;;6.59;54.11;101135.98;714206;1176;115269;-75
2022/03/06 10:39:41;;;;;;;94.33;37.28;;;;;;;5.89;52.64;101139.00;714015;1174;115785;-71
2022/03/06 10:54:49;;;;;;;370.05;126.70;;;;;;;6.06;53.32;101125.91;714283;1174;116142;-76
2022/03/06 11:09:53;;;;;;;351.30;114.28;;;;;;;6.42;54.13;101114.32;714183;1167;114807;-72
2022/03/06 11:25:03;;;;;;;56.20;24.70;;;;;;;6.63;53.61;101108.80;714543;1174;115805;-72
2022/03/06 11:40:05;;;;;;;78.05;30.55;;;;;;;6.49;53.60;101092.20;714468;1174;115057;-76
2022/03/06 11:55:29;;;;;;;41.58;18.08;;;;;;;6.00;52.70;101081.95;713959;1174;114744;-75
2022/03/06 12:10:31;;;;;;;66.13;23.43;;;;;;;7.82;52.41;101067.65;714699;1174;115188;-75
2022/03/06 12:25:36;;;;;;;59.75;21.88;;;;;;;9.37;50.41;101041.63;717321;1174;115056;-75
2022/03/06 12:40:38;;;;;;;27.20;13.65;;;;;;;6.93;50.59;101038.33;715058;1174;115094;-73
2022/03/06 12:55:41;;;;;;;22.83;11.85;;;;;;;7.40;50.48;101023.26;714030;1174;114828;-75
2022/03/06 13:10:43;;;;;;;22.30;7.85;;;;;;;6.31;50.55;101022.91;715370;1175;115243;-75
2022/03/06 13:25:46;;;;;;;46.23;18.28;;;;;;;6.69;50.95;101011.98;713859;1174;115294;-74
2022/03/06 13:40:54;;;;;;;22.68;11.40;;;;;;;6.81;49.27;101000.79;713951;1176;115115;-74
2022/03/06 13:56:02;;;;;;;17.25;7.98;;;;;;;12.56;45.88;101010.03;714081;1174;115220;-74
2022/03/06 14:11:06;;;;;;;40.93;17.10;;;;;;;7.51;46.65;101014.77;714373;1174;115379;-75
2022/03/06 14:26:09;;;;;;;21.37;10.50;;;;;;;6.17;47.56;101010.66;713487;1175;115067;-74
2022/03/06 14:41:13;;;;;;;47.35;17.45;;;;;;;5.79;48.81;101005.84;713899;1174;114754;-75
2022/03/06 14:56:16;;;;;;;90.20;33.97;;;;;;;5.33;49.67;101004.88;713908;1174;114212;-74
2022/03/06 15:11:19;;;;;;;93.93;32.83;;;;;;;4.81;51.26;101007.66;713634;1174;114435;-75
2022/03/06 15:26:22;;;;;;;245.58;69.23;;;;;;;4.61;51.31;101013.91;713654;1176;115236;-76
2022/03/06 15:41:26;;;;;;;151.30;42.33;;;;;;;6.01;51.98;101004.67;713465;1174;115852;-77
2022/03/06 15:56:29;;;;;;;81.87;26.83;;;;;;;8.03;50.24;100989.64;713818;1174;114504;-75
2022/03/06 16:11:32;;;;;;;138.60;46.55;;;;;;;5.53;49.14;100999.49;713905;1175;115420;-77
2022/03/06 16:26:34;;;;;;;117.17;46.20;;;;;;;4.88;50.49;100997.78;713592;1174;116059;-78
2022/03/06 16:41:36;;;;;;;291.05;97.20;;;;;;;4.50;50.65;100996.27;713695;1174;116074;-78
2022/03/06 16:56:39;;;;;;;78.28;27.78;;;;;;;4.29;52.42;101006.00;714696;1175;114836;-74
2022/03/06 17:11:42;;;;;;;127.63;46.63;;;;;;;4.21;52.63;101008.11;714628;1174;115178;-81
2022/03/06 17:26:45;;;;;;;181.50;56.53;;;;;;;4.09;53.24;101012.16;714118;1177;115510;-77
2022/03/06 17:41:49;;;;;;;112.75;38.98;;;;;;;4.03;54.12;101015.08;713475;1175;115935;-78
2022/03/06 17:56:53;;;;;;;269.40;80.03;;;;;;;3.97;53.93;101022.25;713866;1177;115757;-79
2022/03/06 18:11:57;;;;;;;135.28;45.50;;;;;;;3.76;53.92;101024.13;714266;1174;114465;-79
2022/03/06 18:27:00;;;;;;;76.33;26.45;;;;;;;3.48;54.80;101015.05;715524;1176;115753;-78
2022/03/06 18:42:02;;;;;;;64.60;25.53;;;;;;;3.57;55.32;101021.55;717229;1174;114563;-78
2022/03/06 18:57:05;;;;;;;71.23;27.73;;;;;;;3.66;55.37;101023.70;714985;1177;114245;-77
2022/03/06 19:12:08;;;;;;;163.80;56.53;;;;;;;3.59;55.03;101018.88;714874;1167;117366;-78
2022/03/06 19:27:13;;;;;;;80.60;29.10;;;;;;;3.41;56.47;101015.41;714701;1177;115288;-77
2022/03/06 19:42:18;;;;;;;295.43;78.63;;;;;;;3.35;57.11;101029.47;714717;1174;115659;-78
2022/03/06 19:57:21;;;;;;;60.70;24.20;;;;;;;3.38;56.58;101026.76;715136;1174;115710;-75
2022/03/06 20:12:23;;;;;;;51.75;21.15;;;;;;;3.34;56.87;101001.88;713613;1174;115104;-73
2022/03/06 20:27:26;;;;;;;41.25;19.08;;;;;;;3.19;57.20;101008.59;716394;1174;115545;-74
2022/03/06 20:42:30;;;;;;;58.25;21.38;;;;;;;3.16;56.50;101011.34;713266;1174;114971;-72
2022/03/06 20:57:34;;;;;;;65.20;24.90;;;;;;;3.14;57.35;101014.00;713325;1174;115124;-73
2022/03/06 21:12:40;;;;;;;36.10;16.45;;;;;;;3.04;57.12;101007.55;713365;1177;115182;-73
2022/03/06 21:27:45;;;;;;;115.77;36.10;;;;;;;3.17;57.76;101000.06;713428;1174;114268;-73
2022/03/06 21:42:48;;;;;;;46.88;18.45;;;;;;;3.12;58.12;101009.80;713252;1175;115369;-73
2022/03/06 21:57:53;;;;;;;30.55;14.25;;;;;;;3.00;58.07;101008.59;713171;1177;114148;-72
2022/03/06 22:12:56;;;;;;;18.63;9.70;;;;;;;2.84;59.13;101013.63;713166;1174;115233;-72
2022/03/06 22:28:02;;;;;;;25.48;13.25;;;;;;;2.74;59.02;100999.38;713430;1174;115263;-74
2022/03/06 22:43:05;;;;;;;214.23;51.75;;;;;;;2.66;59.73;100982.41;712990;1174;115562;-73
2022/03/06 22:58:10;;;;;;;26.10;12.15;;;;;;;2.68;60.36;100990.14;712958;1174;115372;-73
2022/03/06 23:13:15;;;;;;;29.30;12.13;;;;;;;2.65;60.71;100985.92;713334;1176;115280;-75
2022/03/06 23:28:18;;;;;;;26.70;10.80;;;;;;;2.54;61.88;100988.13;713652;1177;114351;-73
2022/03/06 23:43:22;;;;;;;30.25;10.73;;;;;;;2.53;62.91;101003.74;713211;1174;115833;-72
2022/03/06 23:58:26;;;;;;;33.95;12.80;;;;;;;2.28;63.42;100984.06;713222;1174;115693;-72
